Time;durP1;ratioP1;P1;durP2;ratioP2;P2;SDS_P1;SDS_P2;PMS_P1;PMS_P2;Temp;Humidity;BMP_temperature;BMP_pressure;BME280_temperature;BME280_humidity;BME280_pressure;Samples;Min_cycle;Max_cycle;Signal;HPM_P1;HPM_P2
2022/07/10 00:00:35;;;;;;;0.20;0.10;;;;;;;17.35;83.54;101444.34;4986735;28;20038;-61
2022/07/10 00:03:02;;;;;;;1.73;0.10;;;;;;;17.41;83.65;101442.81;4992406;28;20053;-61
2022/07/10 00:05:28;;;;;;;0.50;0.20;;;;;;;17.38;83.63;101441.63;4986982;28;20033;-61
2022/07/10 00:07:54;;;;;;;0.55;0.20;;;;;;;17.41;83.35;101451.00;4980467;28;20303;-61
2022/07/10 00:10:22;;;;;;;2.83;0.20;;;;;;;17.42;83.17;101439.72;4966722;28;20121;-61
2022/07/10 00:12:49;;;;;;;1.55;0.30;;;;;;;17.43;83.64;101435.84;4971721;28;20043;-61
2022/07/10 00:15:16;;;;;;;0.30;0.10;;;;;;;17.41;83.42;101442.81;4981923;28;20041;-60
2022/07/10 00:17:42;;;;;;;1.48;0.20;;;;;;;17.40;84.30;101439.31;4981375;28;20037;-60
2022/07/10 00:20:09;;;;;;;0.73;0.32;;;;;;;17.36;84.68;101449.44;4999032;28;20092;-60
2022/07/10 00:22:36;;;;;;;0.20;0.20;;;;;;;17.34;84.46;101442.81;4985083;28;20060;-61
2022/07/10 00:25:03;;;;;;;4.28;0.55;;;;;;;17.36;83.23;101444.00;4975101;28;20066;-60
2022/07/10 00:27:29;;;;;;;1.27;0.40;;;;;;;17.39;83.29;101442.44;4982186;28;20042;-60
2022/07/10 00:29:54;;;;;;;0.55;0.25;;;;;;;17.38;83.16;101449.81;4981927;28;20536;-61
2022/07/10 00:32:20;;;;;;;1.77;0.20;;;;;;;17.39;82.88;101437.75;4980449;28;20104;-61
2022/07/10 00:34:46;;;;;;;0.75;0.30;;;;;;;17.41;83.96;101440.88;4985738;28;20065;-61
2022/07/10 00:37:32;;;;;;;4.05;0.30;;;;;;;17.42;83.70;101437.00;4977140;28;20043;-62
2022/07/10 00:39:57;;;;;;;0.30;0.10;;;;;;;17.39;84.08;101436.97;4954916;28;20046;-61
2022/07/10 00:42:23;;;;;;;0.65;0.20;;;;;;;17.37;84.54;101423.75;4945603;28;20433;-60
2022/07/10 00:44:49;;;;;;;0.43;0.30;;;;;;;17.34;84.71;101435.41;4961285;28;20105;-60
2022/07/10 00:47:17;;;;;;;0.32;0.22;;;;;;;17.21;86.08;101431.44;4955320;28;20359;-61
2022/07/10 00:49:43;;;;;;;1.17;0.20;;;;;;;17.21;85.98;101436.88;4956697;28;20046;-61
2022/07/10 00:52:14;;;;;;;1.27;0.30;;;;;;;17.23;85.44;101429.09;4955571;28;20108;-60
2022/07/10 00:54:43;;;;;;;1.35;0.65;;;;;;;17.24;85.13;101436.13;4955706;28;20669;-60
2022/07/10 00:57:09;;;;;;;0.10;0.10;;;;;;;17.19;85.57;101433.75;4955171;28;20074;-61
2022/07/10 00:59:35;;;;;;;0.47;0.17;;;;;;;17.15;86.33;101441.13;4959052;28;20026;-60
2022/07/10 01:02:03;;;;;;;0.32;0.15;;;;;;;17.13;86.12;101429.81;4953804;28;20098;-61
2022/07/10 01:04:29;;;;;;;0.55;0.22;;;;;;;17.13;85.84;101424.38;4960520;28;20054;-61
2022/07/10 01:06:55;;;;;;;0.65;0.20;;;;;;;17.11;85.96;101413.88;4965007;28;20410;-60
2022/07/10 01:09:20;;;;;;;1.13;0.30;;;;;;;17.13;85.37;101413.50;4962492;28;20202;-61
2022/07/10 01:11:46;;;;;;;0.75;0.20;;;;;;;17.12;84.84;101426.34;4950138;28;20038;-61
2022/07/10 01:14:12;;;;;;;1.67;0.30;;;;;;;17.04;85.57;101415.78;4965061;28;20552;-61
2022/07/10 01:16:38;;;;;;;2.78;0.50;;;;;;;17.14;84.89;101420.50;4963857;28;20124;-61
2022/07/10 01:19:03;;;;;;;1.30;0.20;;;;;;;17.17;84.35;101414.28;4977925;28;20031;-61
2022/07/10 01:21:37;;;;;;;2.78;0.35;;;;;;;17.16;84.37;101418.19;4990597;28;20045;-60
2022/07/10 01:24:08;;;;;;;1.40;0.45;;;;;;;17.13;83.63;101408.84;4985035;28;20112;-61
2022/07/10 01:26:35;;;;;;;0.88;0.30;;;;;;;17.16;83.93;101410.03;4998839;28;20117;-60
2022/07/10 01:29:04;;;;;;;0.68;0.20;;;;;;;17.17;83.68;101408.84;4986941;28;20041;-61
2022/07/10 01:31:30;;;;;;;1.35;0.47;;;;;;;17.18;83.73;101415.88;4991490;28;20286;-61
2022/07/10 01:33:56;;;;;;;0.60;0.30;;;;;;;17.14;83.92;101401.47;4988522;28;20053;-61
2022/07/10 01:36:22;;;;;;;0.40;0.40;;;;;;;17.12;83.72;101403.78;4992393;28;20084;-61
2022/07/10 01:38:51;;;;;;;0.57;0.22;;;;;;;17.08;84.01;101406.47;4988653;28;20019;-60
2022/07/10 01:41:16;;;;;;;1.55;0.30;;;;;;;17.04;84.81;101402.16;4991189;28;20485;-61
2022/07/10 01:43:45;;;;;;;1.77;0.20;;;;;;;17.04;85.06;101391.28;4987235;28;20090;-60
2022/07/10 01:46:12;;;;;;;1.10;0.25;;;;;;;17.01;84.47;101397.50;4987605;28;20127;-60
2022/07/10 01:48:38;;;;;;;1.48;0.32;;;;;;;16.95;84.92;101399.81;4992027;28;20176;-60
2022/07/10 01:51:05;;;;;;;2.92;0.30;;;;;;;16.94;84.65;101398.22;4987710;28;20035;-60
2022/07/10 01:53:32;;;;;;;4.07;0.52;;;;;;;16.94;85.06;101386.53;4987257;28;20125;-60
2022/07/10 01:55:59;;;;;;;1.63;0.20;;;;;;;16.99;84.91;101381.53;4987784;28;20074;-60
2022/07/10 01:58:24;;;;;;;2.85;0.20;;;;;;;16.94;84.82;101390.06;4988538;28;20051;-60
2022/07/10 02:00:50;;;;;;;1.65;0.65;;;;;;;17.00;85.38;101387.75;4987739;28;20386;-61
2022/07/10 02:06:00;;;;;;;1.05;0.20;;;;;;;17.00;85.62;101387.75;4990369;28;20038;-61
2022/07/10 02:08:25;;;;;;;0.82;0.35;;;;;;;16.98;85.32;101381.91;4983732;28;20033;-62
2022/07/10 02:10:51;;;;;;;0.43;0.20;;;;;;;17.02;85.47;101385.44;4997886;28;20099;-60
2022/07/10 02:13:20;;;;;;;1.35;0.22;;;;;;;16.95;84.70;101379.97;5000947;28;20133;-60
2022/07/10 02:15:47;;;;;;;1.15;0.50;;;;;;;16.97;84.42;101381.16;4988291;28;20101;-60
2022/07/10 02:18:33;;;;;;;0.50;0.35;;;;;;;16.96;84.34;101376.06;4988504;28;20034;-61
2022/07/10 02:20:58;;;;;;;1.10;0.30;;;;;;;16.97;84.22;101381.16;4969308;28;20058;-63
2022/07/10 02:23:24;;;;;;;0.73;0.30;;;;;;;16.99;84.24;101380.75;4952641;28;20047;-63
2022/07/10 02:25:49;;;;;;;0.40;0.30;;;;;;;16.99;84.11;101383.47;4932979;28;20074;-61
2022/07/10 02:28:15;;;;;;;3.38;0.40;;;;;;;16.99;84.60;101378.03;4943953;28;20062;-59
2022/07/10 02:30:42;;;;;;;1.33;0.45;;;;;;;17.00;83.87;101374.16;4965502;28;20101;-61
2022/07/10 02:33:07;;;;;;;0.60;0.30;;;;;;;17.00;84.47;101374.94;4957866;28;20132;-60
2022/07/10 02:35:33;;;;;;;0.40;0.10;;;;;;;16.99;84.71;101369.88;4972188;28;20125;-61
2022/07/10 02:37:58;;;;;;;0.88;0.40;;;;;;;17.01;84.24;101373.00;4967221;28;20038;-61
2022/07/10 02:40:24;;;;;;;3.40;0.73;;;;;;;17.10;84.33;101376.94;4966571;28;20411;-60
2022/07/10 02:42:49;;;;;;;4.22;0.50;;;;;;;17.09;83.94;101380.06;4962626;28;20082;-60
2022/07/10 02:45:15;;;;;;;1.95;0.45;;;;;;;17.00;83.92;101379.59;4964583;28;20081;-59
2022/07/10 02:47:41;;;;;;;3.78;0.50;;;;;;;17.03;84.32;101376.13;4961108;28;20089;-62
2022/07/10 02:50:07;;;;;;;1.95;0.52;;;;;;;17.05;83.42;101379.25;4963662;28;20058;-61
2022/07/10 02:52:33;;;;;;;1.00;0.30;;;;;;;17.06;83.37;101378.06;4951936;28;20101;-61
2022/07/10 02:54:58;;;;;;;4.30;0.20;;;;;;;17.03;83.54;101373.41;4966335;28;20053;-62
2022/07/10 02:57:24;;;;;;;1.55;0.40;;;;;;;17.05;83.87;101376.53;4969401;28;20042;-61
2022/07/10 02:59:50;;;;;;;0.30;0.30;;;;;;;17.08;83.76;101378.47;4989502;28;20405;-62
2022/07/10 03:02:15;;;;;;;5.22;0.57;;;;;;;17.03;83.92;101371.44;4990590;28;20089;-61
2022/07/10 03:04:41;;;;;;;0.65;0.55;;;;;;;17.07;83.59;101369.53;4991518;28;20031;-61
2022/07/10 03:07:07;;;;;;;1.25;0.32;;;;;;;17.07;83.39;101363.31;4985894;28;20038;-61
2022/07/10 03:09:32;;;;;;;3.25;0.68;;;;;;;16.99;83.71;101370.63;4991696;28;20030;-60
2022/07/10 03:11:58;;;;;;;1.77;0.57;;;;;;;17.01;83.82;101373.00;4982010;28;20038;-61
2022/07/10 03:14:23;;;;;;;4.53;0.50;;;;;;;16.93;84.61;101372.19;4988304;28;20031;-62
2022/07/10 03:16:49;;;;;;;0.90;0.45;;;;;;;16.95;85.18;101371.78;4983235;28;20034;-61
2022/07/10 03:19:15;;;;;;;0.88;0.40;;;;;;;16.95;84.27;101372.59;4987190;28;20044;-62
2022/07/10 03:21:40;;;;;;;1.67;0.57;;;;;;;16.99;84.68;101381.53;4990047;28;20039;-61
2022/07/10 03:24:06;;;;;;;1.08;0.40;;;;;;;17.02;83.96;101374.53;4983951;28;20038;-61
2022/07/10 03:26:31;;;;;;;2.78;0.70;;;;;;;17.03;83.54;101378.84;4989302;28;20036;-61
2022/07/10 03:28:57;;;;;;;1.75;0.30;;;;;;;17.05;83.36;101373.81;4989853;28;20068;-61
2022/07/10 03:31:22;;;;;;;2.72;0.50;;;;;;;17.05;83.33;101371.09;4987315;28;20126;-61
2022/07/10 03:33:48;;;;;;;1.83;0.35;;;;;;;17.05;83.37;101369.13;4994030;28;20125;-61
2022/07/10 03:36:14;;;;;;;1.00;0.50;;;;;;;17.03;83.52;101365.25;4988198;28;20041;-60
2022/07/10 03:38:40;;;;;;;1.85;0.80;;;;;;;17.03;83.67;101368.72;4994385;28;20022;-61
2022/07/10 03:41:06;;;;;;;0.50;0.30;;;;;;;16.96;83.54;101365.97;4987104;28;20041;-62
2022/07/10 03:43:31;;;;;;;1.52;0.50;;;;;;;17.02;83.42;101372.63;4968835;28;20026;-61
2022/07/10 03:45:57;;;;;;;5.70;0.80;;;;;;;17.03;83.08;101365.25;4984155;28;20046;-62
2022/07/10 03:48:23;;;;;;;3.00;0.50;;;;;;;16.91;84.12;101379.16;4989652;28;20034;-61
2022/07/10 03:50:52;;;;;;;5.03;0.77;;;;;;;16.89;84.20;101367.88;4988584;28;20034;-60
2022/07/10 03:53:18;;;;;;;0.80;0.47;;;;;;;16.86;85.47;101377.56;4988772;28;20742;-60
2022/07/10 03:55:44;;;;;;;3.50;1.13;;;;;;;16.93;85.42;101371.41;4988300;28;20045;-61
2022/07/10 03:58:10;;;;;;;1.58;0.43;;;;;;;16.93;85.37;101369.47;4990410;28;20401;-61
2022/07/10 04:00:37;;;;;;;5.35;0.68;;;;;;;16.96;84.19;101370.63;4998963;28;20034;-61
2022/07/10 04:03:07;;;;;;;6.05;0.80;;;;;;;16.99;84.09;101369.88;4990222;28;20026;-61
2022/07/10 04:05:33;;;;;;;2.30;0.47;;;;;;;17.01;84.19;101362.13;4981224;28;20065;-59
2022/07/10 04:08:00;;;;;;;1.23;0.80;;;;;;;16.98;84.28;101363.66;4986617;28;20037;-62
2022/07/10 04:10:27;;;;;;;1.20;0.60;;;;;;;17.01;83.35;101362.13;4992442;28;20121;-62
2022/07/10 04:12:53;;;;;;;4.40;0.68;;;;;;;17.04;82.56;101351.25;4989692;28;20030;-61
2022/07/10 04:15:19;;;;;;;4.28;0.80;;;;;;;17.04;82.33;101356.69;4985724;28;20165;-61
2022/07/10 04:17:45;;;;;;;2.35;0.60;;;;;;;17.09;83.00;101345.41;4988704;28;20395;-60
2022/07/10 04:20:12;;;;;;;0.95;0.63;;;;;;;17.15;83.13;101356.72;4987615;28;20042;-59
2022/07/10 04:22:37;;;;;;;6.30;1.02;;;;;;;17.21;82.42;101352.47;5013409;23;20503;-69
2022/07/10 04:25:04;;;;;;;1.33;0.70;;;;;;;17.17;82.85;101360.63;4987659;28;20081;-69
2022/07/10 04:27:29;;;;;;;0.77;0.57;;;;;;;17.19;82.19;101352.06;4990335;28;20499;-69
2022/07/10 04:29:55;;;;;;;1.30;0.60;;;;;;;17.19;82.58;101346.63;4989275;28;20300;-69
2022/07/10 04:32:21;;;;;;;2.83;0.85;;;;;;;17.08;82.15;101352.03;4989581;28;20064;-69
2022/07/10 04:34:47;;;;;;;6.22;0.80;;;;;;;17.09;82.68;101353.59;4991945;28;20034;-69
2022/07/10 04:37:12;;;;;;;4.28;0.70;;;;;;;17.20;82.32;101352.88;4984270;28;20109;-69
2022/07/10 04:39:39;;;;;;;2.05;1.00;;;;;;;17.17;82.70;101349.75;4988946;28;20483;-69
2022/07/10 04:42:06;;;;;;;1.40;0.63;;;;;;;17.26;82.39;101351.34;4979223;28;20045;-69
2022/07/10 04:44:32;;;;;;;5.82;1.05;;;;;;;17.28;81.50;101349.81;4990432;28;20034;-69
2022/07/10 04:46:58;;;;;;;2.67;0.70;;;;;;;17.33;81.47;101343.97;4989316;28;20593;-69
2022/07/10 04:49:24;;;;;;;1.27;0.60;;;;;;;17.26;82.02;101352.13;4987701;28;20031;-69
2022/07/10 04:51:50;;;;;;;2.22;0.82;;;;;;;17.39;81.85;101364.22;4986864;28;20117;-71
2022/07/10 04:54:15;;;;;;;2.15;0.70;;;;;;;17.41;81.97;101370.06;4989367;28;20459;-71
2022/07/10 04:56:40;;;;;;;3.95;0.90;;;;;;;17.51;81.50;101361.22;4987887;28;20105;-73
2022/07/10 04:59:07;;;;;;;2.50;0.60;;;;;;;17.59;81.18;101365.53;4990150;28;20379;-71
2022/07/10 05:01:33;;;;;;;2.78;0.40;;;;;;;17.67;80.75;101366.31;4986962;28;20403;-71
2022/07/10 05:03:59;;;;;;;0.60;0.60;;;;;;;17.73;80.93;101368.25;4989638;28;20475;-71
2022/07/10 05:06:24;;;;;;;0.88;0.65;;;;;;;17.79;80.64;101369.44;4990134;28;20101;-71
2022/07/10 05:08:50;;;;;;;4.80;0.88;;;;;;;17.76;80.24;101372.97;4981631;28;20037;-71
2022/07/10 05:11:15;;;;;;;2.47;0.70;;;;;;;17.86;80.01;101372.22;4989262;28;20043;-71
2022/07/10 05:13:45;;;;;;;5.03;0.88;;;;;;;17.89;79.48;101368.69;4990154;28;20045;-71
2022/07/10 05:16:10;;;;;;;3.72;0.73;;;;;;;17.92;79.70;101372.59;4986625;28;20128;-71
2022/07/10 05:18:36;;;;;;;2.45;0.90;;;;;;;17.91;80.41;101362.84;4988615;28;20574;-71
2022/07/10 05:21:02;;;;;;;3.17;0.75;;;;;;;17.96;80.04;101378.84;4989890;28;20386;-71
2022/07/10 05:23:27;;;;;;;2.10;0.70;;;;;;;17.94;79.84;101371.03;4989152;28;20450;-71
2022/07/10 05:25:53;;;;;;;4.07;0.82;;;;;;;17.96;79.15;101379.59;4989538;28;20446;-71
2022/07/10 05:28:18;;;;;;;5.45;0.82;;;;;;;18.03;79.29;101379.63;4988990;28;20038;-71
2022/07/10 05:30:44;;;;;;;5.53;1.05;;;;;;;18.09;78.69;101377.31;4989687;28;20121;-71
2022/07/10 05:33:09;;;;;;;2.63;0.85;;;;;;;18.16;77.20;101385.47;4988030;28;20057;-71
2022/07/10 05:35:35;;;;;;;2.25;0.90;;;;;;;18.17;77.55;101381.59;4992248;28;20042;-71
2022/07/10 05:38:01;;;;;;;4.07;0.90;;;;;;;18.24;76.62;101383.53;4993371;28;20093;-71
2022/07/10 05:40:26;;;;;;;5.10;0.90;;;;;;;18.32;76.99;101376.94;4993311;28;20046;-71
2022/07/10 05:42:52;;;;;;;2.83;0.68;;;;;;;18.44;76.15;101371.13;4993222;28;20487;-69
2022/07/10 05:45:18;;;;;;;3.53;0.63;;;;;;;18.50;74.54;101385.94;4994733;28;20038;-73
2022/07/10 05:48:03;;;;;;;2.60;0.73;;;;;;;18.46;72.99;101380.47;4991072;28;20023;-69
2022/07/10 05:50:30;;;;;;;2.30;0.80;;;;;;;18.52;72.87;101376.19;4950583;29;20047;-69
2022/07/10 05:52:55;;;;;;;2.50;0.70;;;;;;;18.53;73.20;101380.47;4948435;29;20055;-69
2022/07/10 05:55:21;;;;;;;2.05;0.60;;;;;;;18.53;73.64;101380.47;4947697;29;20072;-70
2022/07/10 05:57:46;;;;;;;3.90;0.70;;;;;;;18.57;73.53;101383.19;4949830;29;20024;-72
2022/07/10 06:00:12;;;;;;;7.20;1.65;;;;;;;18.67;73.24;101380.47;4943768;29;20054;-69
2022/07/10 06:02:38;;;;;;;3.75;1.08;;;;;;;18.70;72.54;101379.66;4943163;29;20066;-69
2022/07/10 06:05:05;;;;;;;3.35;0.80;;;;;;;18.76;73.00;101378.09;4947280;29;20123;-69
2022/07/10 06:07:30;;;;;;;2.20;0.80;;;;;;;18.92;71.45;101383.16;4949448;28;20104;-69
2022/07/10 06:09:56;;;;;;;4.63;0.80;;;;;;;19.28;71.21;101381.88;4947795;29;20074;-69
2022/07/10 06:12:22;;;;;;;3.28;1.05;;;;;;;19.42;70.06;101381.84;4950265;29;20075;-69
2022/07/10 06:14:47;;;;;;;4.63;0.77;;;;;;;19.45;70.41;101383.78;4951693;29;20574;-71
2022/07/10 06:17:13;;;;;;;4.68;0.75;;;;;;;19.37;70.34;101389.69;4942106;29;20643;-70
2022/07/10 06:19:39;;;;;;;2.53;0.80;;;;;;;19.51;69.20;101384.16;4948338;29;20027;-70
2022/07/10 06:24:48;;;;;;;4.22;0.75;;;;;;;19.44;68.58;101390.44;4949739;29;20050;-70
2022/07/10 06:27:14;;;;;;;4.40;0.55;;;;;;;19.52;68.33;101396.66;4964693;28;20046;-70
2022/07/10 06:29:40;;;;;;;6.22;0.68;;;;;;;19.48;67.55;101385.75;4992413;28;20495;-70
2022/07/10 06:32:06;;;;;;;3.40;0.63;;;;;;;19.41;68.07;101391.25;4992576;28;20176;-72
2022/07/10 06:34:32;;;;;;;2.03;0.60;;;;;;;19.29;68.16;101401.78;4991848;28;20062;-71
2022/07/10 06:36:57;;;;;;;4.57;0.80;;;;;;;19.20;69.50;101396.72;4990287;28;20517;-69
2022/07/10 06:39:23;;;;;;;1.95;0.63;;;;;;;19.14;69.99;101400.28;4988917;28;20046;-70
2022/07/10 06:41:49;;;;;;;5.40;0.60;;;;;;;19.09;69.90;101384.28;4991467;28;20034;-71
2022/07/10 06:44:14;;;;;;;5.60;0.90;;;;;;;19.09;69.03;101398.72;4989611;28;20121;-71
2022/07/10 06:46:40;;;;;;;3.17;0.82;;;;;;;19.10;69.69;101391.31;4991289;28;20238;-72
2022/07/10 06:49:06;;;;;;;6.40;0.80;;;;;;;19.20;69.29;101394.00;4982565;28;20018;-70
2022/07/10 06:51:32;;;;;;;6.13;0.68;;;;;;;19.32;68.10;101407.25;4990733;28;20045;-69
2022/07/10 06:53:58;;;;;;;4.40;0.93;;;;;;;19.63;66.92;101394.63;4985128;28;20047;-72
2022/07/10 06:56:23;;;;;;;4.40;0.80;;;;;;;19.77;67.08;101398.09;4989349;28;20037;-69
2022/07/10 06:58:49;;;;;;;1.60;0.50;;;;;;;19.89;66.66;101396.84;4987535;28;20547;-70
2022/07/10 07:01:14;;;;;;;3.38;0.70;;;;;;;20.09;64.15;101405.34;4989284;28;20026;-72
2022/07/10 07:03:40;;;;;;;3.97;0.50;;;;;;;20.44;64.54;101396.91;5003811;28;20073;-69
2022/07/10 07:06:06;;;;;;;2.85;0.40;;;;;;;20.66;63.30;101390.06;4989757;28;20030;-69
2022/07/10 07:08:32;;;;;;;1.77;0.45;;;;;;;20.79;61.58;101384.88;4990980;28;20175;-70
2022/07/10 07:10:57;;;;;;;5.80;0.55;;;;;;;20.92;59.98;101385.91;4986760;28;20505;-71
2022/07/10 07:13:23;;;;;;;4.43;0.65;;;;;;;20.93;60.00;101395.66;5004973;28;21717;-71
2022/07/10 07:16:11;;;;;;;3.53;0.50;;;;;;;21.06;58.98;101389.28;4991047;28;20034;-70
2022/07/10 07:18:35;;;;;;;3.28;0.50;;;;;;;21.13;57.53;101396.66;4992322;28;20393;-69
2022/07/10 07:23:45;;;;;;;1.50;0.50;;;;;;;21.29;58.33;101391.41;4991303;28;20096;-69
2022/07/10 07:26:11;;;;;;;4.10;0.60;;;;;;;21.33;58.55;101392.13;4991432;28;20030;-70
2022/07/10 07:28:36;;;;;;;5.93;0.70;;;;;;;21.29;56.81;101391.41;4990265;28;20038;-69
2022/07/10 07:31:02;;;;;;;1.95;0.30;;;;;;;21.02;56.49;101383.06;4988686;28;20109;-70
2022/07/10 07:33:28;;;;;;;5.60;0.50;;;;;;;20.96;57.05;101383.91;4994973;28;20512;-71
2022/07/10 07:35:53;;;;;;;2.80;0.47;;;;;;;20.93;57.90;101380.00;4985815;28;20072;-75
2022/07/10 07:38:19;;;;;;;2.72;0.65;;;;;;;21.19;57.36;101382.13;4990840;28;20050;-70
2022/07/10 07:40:44;;;;;;;2.22;0.50;;;;;;;21.27;56.85;101386.31;4990485;28;20386;-69
2022/07/10 07:43:10;;;;;;;3.30;0.40;;;;;;;21.37;57.23;101374.44;4986558;28;20403;-71
2022/07/10 07:45:35;;;;;;;4.63;0.98;;;;;;;21.48;56.93;101375.09;4989190;28;20103;-68
2022/07/10 07:48:01;;;;;;;5.47;0.60;;;;;;;21.51;57.43;101378.97;4989978;28;20022;-68
2022/07/10 07:50:32;;;;;;;6.93;0.73;;;;;;;21.71;55.12;101381.84;4988216;28;20137;-68
2022/07/10 07:52:59;;;;;;;1.15;0.50;;;;;;;21.82;54.37;101382.50;4990771;28;20033;-67
2022/07/10 07:55:25;;;;;;;2.15;0.40;;;;;;;21.63;55.12;101388.59;4990704;28;20507;-69
2022/07/10 07:57:53;;;;;;;3.80;0.30;;;;;;;21.44;56.19;101398.25;4989429;28;20066;-68
2022/07/10 08:00:22;;;;;;;2.08;0.65;;;;;;;21.41;55.86;101388.09;4987764;28;20096;-71
2022/07/10 08:02:48;;;;;;;4.43;0.75;;;;;;;21.48;55.56;101388.03;4988872;28;20093;-68
2022/07/10 08:05:14;;;;;;;4.93;0.52;;;;;;;21.48;56.12;101391.56;4989773;28;20030;-69
2022/07/10 08:07:44;;;;;;;6.47;0.50;;;;;;;21.45;55.65;101395.09;4990331;28;20113;-69
2022/07/10 08:10:13;;;;;;;2.42;0.65;;;;;;;21.41;55.47;101390.84;4984586;28;20051;-70
2022/07/10 08:12:39;;;;;;;5.40;0.70;;;;;;;21.48;55.84;101391.56;4986285;28;20034;-70
2022/07/10 08:15:10;;;;;;;0.75;0.40;;;;;;;21.64;55.68;101379.22;4990401;28;20041;-70
2022/07/10 08:17:36;;;;;;;;;;;;;;;21.56;55.75;101384.75;4986275;28;20637;-69
2022/07/10 08:20:02;;;;;;;2.92;0.85;;;;;;;21.70;54.70;101383.03;4991558;28;20381;-70
2022/07/10 08:22:28;;;;;;;4.15;0.50;;;;;;;21.84;55.62;101380.13;4989767;28;20038;-70
2022/07/10 08:24:53;;;;;;;2.17;0.57;;;;;;;21.82;53.99;101374.28;4985830;28;20076;-69
2022/07/10 08:27:19;;;;;;;3.13;0.30;;;;;;;21.88;53.88;101378.88;4986763;28;20033;-69
2022/07/10 08:29:44;;;;;;;3.83;0.32;;;;;;;21.95;53.13;101372.53;4989526;28;20110;-70
2022/07/10 08:32:11;;;;;;;3.80;0.55;;;;;;;22.14;54.11;101382.81;4988945;28;20066;-69
2022/07/10 08:34:37;;;;;;;2.60;0.70;;;;;;;22.38;53.22;101374.19;4993588;28;20022;-70
2022/07/10 08:37:03;;;;;;;2.88;0.60;;;;;;;22.72;52.21;101371.28;4986556;28;20462;-70
2022/07/10 08:39:28;;;;;;;1.83;0.40;;;;;;;23.06;50.94;101371.81;4990168;28;20096;-70
2022/07/10 08:41:54;;;;;;;2.25;0.30;;;;;;;23.30;50.62;101376.06;4989281;28;20027;-67
2022/07/10 08:44:20;;;;;;;2.17;0.30;;;;;;;23.42;49.83;101369.16;4989261;28;20038;-71
2022/07/10 08:46:45;;;;;;;3.83;0.35;;;;;;;23.59;49.17;101370.75;4985001;28;20038;-68
2022/07/10 08:49:13;;;;;;;1.42;0.40;;;;;;;23.59;49.13;101384.50;4990048;28;20053;-69
2022/07/10 08:51:49;;;;;;;2.75;0.30;;;;;;;23.56;48.18;101370.81;4990341;28;20030;-68
2022/07/10 08:54:16;;;;;;;2.83;0.40;;;;;;;23.47;48.42;101371.41;4985393;28;20565;-68
2022/07/10 08:56:42;;;;;;;1.40;0.32;;;;;;;23.39;46.69;101371.97;4989078;28;20402;-68
2022/07/10 08:59:08;;;;;;;1.17;0.45;;;;;;;23.40;47.04;101371.56;4987898;28;21502;-68
2022/07/10 09:01:34;;;;;;;3.50;0.40;;;;;;;23.40;48.54;101368.03;4989818;28;20042;-68
2022/07/10 09:03:59;;;;;;;1.65;0.30;;;;;;;23.46;48.64;101374.59;4985378;28;20116;-69
2022/07/10 09:06:28;;;;;;;4.88;0.50;;;;;;;23.58;49.04;101360.94;4989221;28;20494;-69
2022/07/10 09:09:03;;;;;;;3.35;0.43;;;;;;;23.72;48.65;101366.16;4987627;28;20030;-68
2022/07/10 09:11:30;;;;;;;2.88;0.30;;;;;;;23.90;49.30;101366.53;4990725;28;20421;-70
2022/07/10 09:14:02;;;;;;;1.27;0.35;;;;;;;24.08;47.58;101371.63;4999066;28;20438;-68
2022/07/10 09:16:33;;;;;;;4.68;0.38;;;;;;;24.28;47.71;101374.31;4988719;28;20042;-69
2022/07/10 09:19:24;;;;;;;3.15;0.32;;;;;;;24.45;47.58;101379.38;4992334;28;20084;-71
2022/07/10 09:21:51;;;;;;;;;;;;;;;24.28;46.52;101375.09;4990768;28;20038;-70
2022/07/10 09:24:19;;;;;;;3.40;0.43;;;;;;;24.26;46.47;101376.72;4992283;28;19917;-71
2022/07/10 09:26:59;;;;;;;2.17;0.30;;;;;;;24.36;46.50;101373.72;4992677;28;20033;-67
2022/07/10 09:29:25;;;;;;;0.90;0.30;;;;;;;24.50;46.14;101370.59;4990818;28;20101;-69
2022/07/10 09:31:51;;;;;;;3.53;0.30;;;;;;;24.65;46.49;101369.03;4992101;28;20470;-68
2022/07/10 09:34:18;;;;;;;2.55;0.30;;;;;;;24.78;46.96;101378.16;4984057;28;20041;-67
2022/07/10 09:36:44;;;;;;;3.97;0.32;;;;;;;24.80;44.60;101367.47;4988291;28;20065;-72
2022/07/10 09:39:09;;;;;;;3.30;0.30;;;;;;;24.66;44.60;101383.59;4983423;28;20057;-68
2022/07/10 09:41:35;;;;;;;1.38;0.25;;;;;;;24.40;45.39;101371.63;4988129;28;20113;-68
2022/07/10 09:44:05;;;;;;;1.27;0.30;;;;;;;24.36;45.68;101387.47;4990341;28;20034;-70
2022/07/10 09:46:41;;;;;;;0.55;0.28;;;;;;;24.64;44.47;101383.25;4992552;28;20045;-69
2022/07/10 09:49:11;;;;;;;1.55;0.40;;;;;;;24.68;43.66;101376.41;4990974;28;20034;-69
2022/07/10 09:51:39;;;;;;;2.13;0.40;;;;;;;24.68;46.54;101378.41;4992164;28;20045;-69
2022/07/10 09:54:06;;;;;;;0.88;0.25;;;;;;;24.76;44.35;101377.03;5003887;28;20399;-67
2022/07/10 09:56:40;;;;;;;1.05;0.30;;;;;;;24.66;44.60;101387.09;4989459;28;20053;-71
2022/07/10 09:59:09;;;;;;;2.38;0.45;;;;;;;24.64;45.75;101381.25;4989922;28;20089;-67
2022/07/10 10:01:36;;;;;;;2.88;0.52;;;;;;;24.81;45.98;101385.56;4990786;28;20034;-67
2022/07/10 10:04:04;;;;;;;2.33;0.60;;;;;;;25.00;45.00;101365.34;4989725;28;20094;-70
2022/07/10 10:06:30;;;;;;;3.58;0.47;;;;;;;24.96;46.59;101378.47;4989267;28;20026;-67
2022/07/10 10:09:02;;;;;;;4.05;0.55;;;;;;;24.82;45.87;101378.84;4990154;28;20045;-67
2022/07/10 10:11:30;;;;;;;1.48;0.60;;;;;;;24.79;46.10;101376.19;4991274;28;20042;-67
2022/07/10 10:13:56;;;;;;;6.43;0.50;;;;;;;24.94;44.19;101372.59;4990414;28;20054;-67
2022/07/10 10:16:22;;;;;;;2.38;0.50;;;;;;;25.04;45.39;101371.53;4988293;28;20045;-67
2022/07/10 10:21:39;;;;;;;0.60;0.40;;;;;;;25.09;44.60;101361.94;4990847;23;20038;31
2022/07/10 10:24:06;;;;;;;2.05;0.57;;;;;;;24.91;44.15;101373.47;4969048;28;20086;-72
2022/07/10 10:26:32;;;;;;;1.27;0.20;;;;;;;24.97;43.41;101368.22;4970605;28;20384;-72
2022/07/10 10:29:00;;;;;;;4.93;0.50;;;;;;;25.19;44.57;101371.13;4973609;28;20037;-72
2022/07/10 10:31:28;;;;;;;0.65;0.30;;;;;;;25.39;44.72;101374.50;4974355;28;20625;-73
2022/07/10 10:33:55;;;;;;;2.78;0.50;;;;;;;25.43;44.19;101370.47;4967340;28;20380;-72
2022/07/10 10:36:44;;;;;;;1.80;0.43;;;;;;;25.33;44.26;101363.22;4965214;28;20514;-72
2022/07/10 10:39:16;;;;;;;2.00;0.20;;;;;;;25.27;44.04;101372.47;4967030;28;20062;-72
2022/07/10 10:41:54;;;;;;;2.17;0.45;;;;;;;25.63;42.60;101367.47;4964490;28;20038;-72
2022/07/10 10:44:21;;;;;;;1.67;0.30;;;;;;;25.81;43.91;101378.75;4967427;28;20407;-73
2022/07/10 10:46:50;;;;;;;3.30;0.50;;;;;;;25.86;43.97;101367.94;4966663;28;20041;-72
2022/07/10 10:49:18;;;;;;;2.42;0.20;;;;;;;26.09;43.33;101372.41;4966293;28;20026;-73
2022/07/10 10:52:04;;;;;;;1.30;0.40;;;;;;;26.32;41.94;101366.50;4966729;28;20357;-73
2022/07/10 10:54:55;;;;;;;2.47;0.30;;;;;;;26.47;41.68;101364.03;4960637;28;20043;-73
2022/07/10 10:57:22;;;;;;;2.08;0.40;;;;;;;26.52;40.58;101367.00;4957272;28;20653;-72
2022/07/10 10:59:52;;;;;;;3.65;0.28;;;;;;;26.57;39.70;101369.22;4964081;28;20027;-72
2022/07/10 11:02:24;;;;;;;3.13;0.47;;;;;;;26.71;41.29;101365.22;4965232;28;20042;-72
2022/07/10 11:04:50;;;;;;;0.88;0.20;;;;;;;26.67;39.91;101367.28;4964378;28;20043;-72
2022/07/10 11:07:53;;;;;;;1.23;0.38;;;;;;;26.36;40.02;101358.09;4966710;28;20133;-72
2022/07/10 11:10:32;;;;;;;0.40;0.20;;;;;;;25.63;41.99;101375.75;4967186;28;20031;-72
2022/07/10 11:13:08;;;;;;;2.92;0.35;;;;;;;25.81;42.23;101382.31;4968675;28;20038;-72
2022/07/10 11:15:41;;;;;;;0.65;0.15;;;;;;;26.13;41.32;101375.78;4965639;28;20115;-73
2022/07/10 11:18:13;;;;;;;2.33;0.20;;;;;;;26.39;40.99;101371.78;4962049;28;20042;-73
2022/07/10 11:20:41;;;;;;;1.52;0.20;;;;;;;26.72;40.93;101369.50;4963404;28;20052;-73
2022/07/10 11:23:34;;;;;;;1.00;0.10;;;;;;;27.09;39.94;101376.09;4963987;28;20605;-73
2022/07/10 11:31:10;;;;;;;3.33;0.43;;;;;;;27.12;40.16;101370.44;4935727;28;20364;-65
2022/07/10 11:33:44;;;;;;;4.43;0.20;;;;;;;26.85;39.84;101370.22;4936744;28;20051;-66
2022/07/10 11:36:28;;;;;;;1.23;0.10;;;;;;;26.88;38.16;101361.03;4947032;28;20070;-66
2022/07/10 11:39:08;;;;;;;3.03;0.70;;;;;;;26.68;42.10;101368.81;4926028;29;20410;-64
2022/07/10 11:41:44;;;;;;;2.45;0.35;;;;;;;26.72;40.91;101366.75;4913206;29;20399;-66
2022/07/10 11:44:19;;;;;;;3.05;0.52;;;;;;;27.00;40.35;101371.28;4925545;29;20688;-64